Latest Weather Observations for Norseman Airport

IDW60801

Issued at 11:33 am WST Thursday 1 September 2016 (issued every 30 minutes, with the page automatically refreshed every 10 minutes)

About weather observations | Map of weather stations | Latest weather observations for WA | Other Formats
Station Details ID: 012009 Name: NORSEMAN AERO Lat: -32.21 Lon: 121.75 Height: 262.5 m
Data from the previous 72 hours. | See also: Recent months at Norseman Airport
Date/Time
WST
Temp
°C
App
Temp
°C
Dew
Point
°C
Rel
Hum
%
Delta-T
°C
Wind Press
QNH
hPa
Press
MSL
hPa
Rain since
9am
mm
Dir  Spd
km/h
Gust
km/h
Spd
kts
Gust
kts
01/11:30am 13.5 8.2 8.4 71 2.6 SSW 26 37 14 20 1021.4 1021.2 0.0
01/11:00am 14.0 9.2 9.0 72 2.6 SSW 24 33 13 18 1021.6 1021.4 0.0
01/10:30am 13.7 8.8 9.9 78 2.0 S 26 35 14 19 1021.7 1021.5 0.0
01/10:00am 11.8 7.3 10.2 90 0.8 SSW 24 35 13 19 1021.4 1021.2 0.0
01/09:30am 11.8 7.2 9.7 87 1.1 SSW 24 32 13 17 1021.5 1021.3 0.0
01/09:00am 11.4 6.5 10.0 91 0.7 SSW 26 35 14 19 1021.5 1021.3 0.6
01/08:30am 10.8 5.9 9.9 94 0.5 SW 26 37 14 20 1021.2 1021.0 0.6
01/08:00am 10.7 6.6 10.1 96 0.3 SSW 22 33 12 18 1020.7 1020.5 0.6
01/07:30am 10.3 5.4 10.1 99 0.1 SSW 26 39 14 21 1020.3 1020.3 0.6
01/07:00am 10.2 5.3 10.1 99 0.1 SSW 26 33 14 18 1019.8 1019.8 0.6
01/06:30am 10.1 6.0 10.0 99 0.1 SSW 22 32 12 17 1019.2 1019.2 0.6
01/06:00am 10.3 6.6 10.1 99 0.1 SSW 20 28 11 15 1018.6 1018.7 0.4
01/05:30am 10.6 7.0 10.4 99 0.1 SSW 20 26 11 14 1018.2 1018.3 0.4
01/05:00am 10.6 7.5 10.4 99 0.1 SSW 17 20 9 11 1017.9 1018.0 0.4
01/04:30am 10.6 7.5 10.4 99 0.1 SSW 17 22 9 12 1017.5 1017.6 0.4
01/04:00am 10.6 7.5 10.4 99 0.1 SSW 17 20 9 11 1017.1 1017.1 0.4
01/03:30am 10.9 7.9 10.7 99 0.1 SSW 17 24 9 13 1016.8 1016.8 0.2
01/03:00am 11.0 8.0 10.8 99 0.1 SSW 17 20 9 11 1016.6 1016.6 0.0
01/02:30am 11.0 8.4 10.8 99 0.1 SSW 15 22 8 12 1016.3 1016.3 0.0
01/02:00am 11.0 8.4 10.8 99 0.1 SSW 15 19 8 10 1016.3 1016.3 0.0
01/01:30am 11.1 8.9 10.9 99 0.1 SW 13 17 7 9 1016.1 1016.1 0.0
01/01:00am 11.1 9.3 10.9 99 0.1 SSW 11 15 6 8 1016.1 1016.1 0.0
01/12:30am 11.2 8.6 10.6 96 0.3 SSW 15 19 8 10 1016.1 1016.1 0.0
01/12:00am 11.1 8.7 10.0 93 0.6 SW 13 17 7 9 1015.9 1015.9 0.0
 
Date/Time
WST
Temp
°C
App
Temp
°C
Dew
Point
°C
Rel
Hum
%
Delta-T
°C
Wind Press
QNH
hPa
Press
MSL
hPa
Rain since
9am
mm
Dir  Spd
km/h
Gust
km/h
Spd
kts
Gust
kts
31/11:30pm 11.3 8.9 9.9 91 0.7 SSW 13 17 7 9 1015.3 1015.3 0.0
31/11:00pm 11.4 9.3 9.7 89 0.9 SSW 11 13 6 7 1015.3 1015.3 0.0
31/10:30pm 11.3 8.7 9.2 87 1.1 SW 13 15 7 8 1015.0 1015.1 0.0
31/10:00pm 11.4 9.1 9.0 85 1.2 SW 11 15 6 8 1014.7 1014.8 0.0
31/09:30pm 11.6 8.9 8.8 83 1.4 SW 13 19 7 10 1014.7 1014.8 0.0
31/09:00pm 11.7 8.9 8.6 81 1.6 WSW 13 17 7 9 1014.6 1014.7 0.0
31/08:30pm 12.0 8.8 8.5 79 1.8 SW 15 19 8 10 1014.2 1014.3 0.0
31/08:00pm 12.3 9.5 8.6 78 1.9 SW 13 17 7 9 1013.7 1013.7 0.0
31/07:30pm 12.7 9.8 8.2 74 2.3 SSW 13 17 7 9 1013.4 1013.4 0.0
31/07:00pm 12.9 9.6 8.2 73 2.4 SW 15 20 8 11 1012.9 1012.9 0.0
31/06:30pm 13.4 9.1 8.0 70 2.7 SW 20 26 11 14 1012.4 1012.4 0.0
31/06:00pm 13.5 11.2 9.0 74 2.3 SW 11 17 6 9 1011.9 1011.9 0.0
31/05:30pm 13.8 9.8 9.0 73 2.5 WSW 20 26 11 14 1011.6 1011.6 0.0
31/05:00pm 13.8 9.6 8.2 69 2.8 SSW 20 30 11 16 1010.5 1010.5 0.0
31/04:30pm 14.5 10.0 8.7 68 3.0 S 22 33 12 18 1009.8 1009.8 0.0
31/04:00pm 17.1 14.3 8.5 57 4.5 SW 13 19 7 10 1009.6 1009.6 0.0
31/03:34pm 17.4 13.8 8.5 56 4.6 N 17 52 9 28 1008.9 1008.9 0.0
31/03:30pm 18.3 15.4 6.5 46 5.9 N 11 17 6 9 1009.2 1009.2 0.0
31/03:00pm 18.4 15.0 7.5 49 5.6 N 15 24 8 13 1009.1 1009.1 0.0
31/02:30pm 19.4 15.1 7.8 47 6.0 N 20 26 11 14 1009.2 1009.2 0.0
31/02:00pm 18.6 14.2 7.4 48 5.8 N 20 28 11 15 1009.5 1009.5 0.0
31/01:30pm 17.8 14.1 8.1 53 5.0 NNE 17 22 9 12 1009.7 1009.7 0.0
31/01:00pm 17.0 12.9 7.9 55 4.7 NNE 19 22 10 12 1010.2 1010.2 0.0
31/12:30pm 16.0 13.3 7.2 56 4.4 N 11 15 6 8 1010.4 1010.4 0.0
31/12:00pm 15.8 11.9 7.3 57 4.3 NNE 17 20 9 11 1010.9 1010.9 0.0
31/11:30am 16.2 12.7 7.4 56 4.4 N 15 19 8 10 1011.4 1011.4 0.0
31/11:00am 15.0 11.5 7.1 59 3.9 N 15 19 8 10 1011.9 1011.9 0.0
31/10:30am 13.8 9.9 7.3 65 3.2 NNE 17 20 9 11 1012.4 1012.4 0.0
31/10:00am 12.7 9.1 6.7 67 2.9 N 15 20 8 11 1012.9 1012.9 0.0
31/09:30am 11.6 7.9 6.5 71 2.4 NNE 15 19 8 10 1013.2 1013.2 0.0
31/09:00am 11.1 7.1 6.5 73 2.2 N 17 22 9 12 1013.9 1013.9 0.2
31/08:30am 9.9 5.8 6.3 78 1.7 N 17 22 9 12 1014.1 1014.1 0.2
31/08:00am 8.6 6.0 6.2 85 1.1 NNE 9 13 5 7 1014.0 1014.0 0.2
31/07:30am 7.6 5.4 6.2 91 0.6 NNW 7 15 4 8 1014.2 1014.3 0.2
31/07:00am 6.6 4.3 5.9 95 0.3 NE 7 9 4 5 1013.9 1013.9 0.2
31/06:30am 4.9 2.4 4.5 97 0.2 NNE 7 11 4 6 1014.0 1014.0 0.2
31/06:00am 3.8 1.0 3.1 95 0.3 N 7 11 4 6 1013.9 1013.9 0.2
31/05:30am 4.4 1.3 3.8 96 0.3 E 9 11 5 6 1013.7 1013.7 0.2
31/05:00am 4.4 1.3 3.7 95 0.3 ESE 9 11 5 6 1013.9 1013.9 0.2
31/04:30am 5.1 2.2 4.5 96 0.3 WSW 9 20 5 11 1014.3 1014.4 0.2
31/04:00am 3.4 0.2 3.0 97 0.2 NE 9 9 5 5 1013.6 1013.6 0.2
31/03:30am 3.4 0.6 3.0 97 0.2 NE 7 7 4 4 1013.7 1013.7 0.2
31/03:00am 3.5 0.7 2.9 96 0.2 NE 7 9 4 5 1013.9 1013.9 0.2
31/02:30am 3.5 0.6 2.8 95 0.3 NE 7 9 4 5 1014.1 1014.1 0.2
31/02:00am 4.2 1.5 3.5 95 0.3 NE 7 7 4 4 1014.5 1014.6 0.2
31/01:30am 4.0 1.2 3.1 94 0.4 NE 7 9 4 5 1014.8 1014.9 0.2
31/01:00am 4.4 1.7 3.5 94 0.4 NE 7 7 4 4 1015.3 1015.3 0.2
31/12:30am 4.7 1.6 3.7 93 0.4 NE 9 9 5 5 1015.2 1015.2 0.2
31/12:00am 4.6 2.1 3.6 93 0.4 NE 6 7 3 4 1015.3 1015.3 0.2
 
Date/Time
WST
Temp
°C
App
Temp
°C
Dew
Point
°C
Rel
Hum
%
Delta-T
°C
Wind Press
QNH
hPa
Press
MSL
hPa
Rain since
9am
mm
Dir  Spd
km/h
Gust
km/h
Spd
kts
Gust
kts
30/11:30pm 4.9 3.5 3.7 92 0.5 CALM 0 0 0 0 1015.5 1015.5 0.2
30/11:00pm 5.2 3.9 3.9 91 0.6 CALM 0 0 0 0 1015.6 1015.6 0.2
30/10:30pm 5.2 3.8 3.5 89 0.7 CALM 0 0 0 0 1015.9 1015.9 0.2
30/10:00pm 6.0 4.7 4.2 88 0.8 CALM 0 0 0 0 1016.1 1016.1 0.2
30/09:30pm 6.3 5.0 4.3 87 0.9 CALM 0 0 0 0 1016.1 1016.1 0.2
30/09:00pm 6.6 5.3 4.1 84 1.1 CALM 0 0 0 0 1016.1 1016.1 0.2
30/08:30pm 7.3 6.1 4.4 82 1.3 CALM 0 0 0 0 1016.2 1016.2 0.2
30/08:00pm 8.0 5.6 4.2 77 1.7 N 6 7 3 4 1016.2 1016.2 0.2
30/07:30pm 8.9 6.5 4.5 74 2.0 ESE 6 7 3 4 1016.1 1016.1 0.2
30/07:00pm 10.1 7.7 5.1 71 2.3 ESE 7 7 4 4 1016.0 1016.0 0.2
30/06:30pm 11.0 10.0 5.5 69 2.6 CALM 0 9 0 5 1015.8 1015.8 0.2
30/06:00pm 14.2 12.1 6.6 60 3.7 NW 7 9 4 5 1015.7 1015.7 0.2
30/05:30pm 15.7 13.0 5.6 51 4.9 NW 9 13 5 7 1015.7 1015.7 0.2
30/05:00pm 17.0 13.8 5.0 45 5.8 W 11 15 6 8 1015.5 1015.5 0.2
30/04:30pm 17.5 14.6 4.8 43 6.1 NNW 9 13 5 7 1015.4 1015.4 0.2
30/04:00pm 17.5 15.1 5.1 44 6.0 NNW 7 15 4 8 1015.2 1015.2 0.2
30/03:30pm 17.1 14.0 5.4 46 5.7 NW 11 22 6 12 1015.0 1015.1 0.2
30/03:00pm 17.4 13.7 4.4 42 6.2 W 13 19 7 10 1015.0 1015.1 0.2
30/02:30pm 17.2 13.1 4.5 43 6.1 W 15 22 8 12 1015.2 1015.2 0.2
30/02:00pm 17.7 13.6 6.3 47 5.7 NW 17 26 9 14 1015.4 1015.4 0.2
30/01:30pm 16.9 13.8 5.5 47 5.6 NW 11 24 6 13 1015.5 1015.5 0.2
30/01:00pm 16.3 12.7 5.0 47 5.4 NNW 13 24 7 13 1015.7 1015.7 0.2
30/12:30pm 15.4 11.8 6.7 56 4.3 WNW 15 22 8 12 1016.0 1016.0 0.2
30/12:00pm 14.4 11.1 6.3 58 3.9 WNW 13 22 7 12 1016.5 1016.5 0.0
30/11:30am 14.7 11.2 7.3 61 3.7 WNW 15 20 8 11 1016.9 1016.9 0.0
30/11:00am 13.7 9.8 7.0 64 3.3 W 17 28 9 15 1017.4 1017.4 0.0
30/10:30am 13.3 9.3 6.6 64 3.3 WNW 17 28 9 15 1017.6 1017.7 0.0
30/10:00am 12.9 10.1 7.1 68 2.8 WNW 11 15 6 8 1017.7 1017.8 0.0
30/09:30am 12.0 9.2 6.9 71 2.5 W 11 17 6 9 1017.7 1017.8 0.0
30/09:00am 11.8 8.3 7.1 73 2.3 WSW 15 20 8 11 1017.8 1017.9 1.0
30/08:30am 10.5 7.3 7.0 79 1.7 WSW 13 19 7 10 1017.8 1017.9 1.0
30/08:00am 9.6 8.0 8.0 90 0.8 NW 6 7 3 4 1017.7 1017.8 1.0
30/07:30am 8.7 7.8 7.9 95 0.4 NW 2 6 1 3 1017.4 1017.4 1.0
30/07:00am 7.9 6.6 7.5 97 0.2 NW 4 7 2 4 1017.2 1017.2 1.0
30/06:30am 7.5 5.6 6.9 96 0.3 W 6 7 3 4 1017.0 1017.0 1.0
30/06:00am 8.2 5.9 7.6 96 0.3 W 9 13 5 7 1016.6 1016.6 1.0
30/05:30am 8.4 4.6 7.6 95 0.4 WSW 17 20 9 11 1016.3 1016.3 1.0
30/05:00am 8.9 5.2 7.8 93 0.5 WSW 17 24 9 13 1016.1 1016.1 1.0
30/04:30am 9.1 6.2 8.0 93 0.5 SW 13 19 7 10 1015.7 1015.7 1.0
30/04:00am 9.0 6.0 7.9 93 0.5 SW 13 17 7 9 1015.3 1015.3 1.0
30/03:30am 9.0 4.8 8.2 95 0.4 SW 20 26 11 14 1014.9 1015.0 1.0
30/03:00am 9.3 5.8 8.7 96 0.3 SW 17 22 9 12 1014.9 1015.0 1.0
30/02:30am 9.3 6.6 8.8 97 0.2 WSW 13 17 7 9 1014.8 1014.9 1.0
30/02:00am 9.2 5.7 8.9 98 0.1 WSW 17 22 9 12 1014.7 1014.8 1.0
30/01:30am 9.2 5.4 9.1 99 0.0 WSW 19 24 10 13 1014.8 1014.9 1.0
30/01:00am 9.7 6.3 9.2 97 0.3 WSW 17 20 9 11 1014.9 1015.0 1.0
30/12:30am 9.9 7.2 9.0 94 0.5 SW 13 19 7 10 1014.9 1015.0 1.0
30/12:00am 9.6 6.8 8.7 94 0.4 SW 13 15 7 8 1014.9 1015.0 1.0
 
Date/Time
WST
Temp
°C
App
Temp
°C
Dew
Point
°C
Rel
Hum
%
Delta-T
°C
Wind Press
QNH
hPa
Press
MSL
hPa
Rain since
9am
mm
Dir  Spd
km/h
Gust
km/h
Spd
kts
Gust
kts
29/11:30pm 10.0 6.6 9.1 94 0.5 SW 17 28 9 15 1014.8 1014.9 1.0
29/11:00pm 10.1 6.7 9.2 94 0.5 SW 17 24 9 13 1014.7 1014.8 1.0
29/10:30pm 10.2 7.6 9.3 94 0.5 SW 13 17 7 9 1014.5 1014.6 1.0
29/10:00pm 10.3 8.1 9.4 94 0.5 WSW 11 13 6 7 1014.5 1014.6 1.0
29/09:30pm 10.3 8.1 9.4 94 0.5 SW 11 15 6 8 1014.5 1014.6 1.0
29/09:00pm 10.6 8.1 9.7 94 0.5 SW 13 17 7 9 1014.4 1014.5 1.0
29/08:30pm 10.4 8.2 9.5 94 0.5 SW 11 15 6 8 1014.2 1014.3 1.0
29/08:00pm 10.5 8.7 9.4 93 0.6 SW 9 17 5 9 1014.0 1014.0 1.0
29/07:30pm 10.7 8.8 9.1 90 0.8 SSW 9 13 5 7 1013.6 1013.6 1.0
29/07:00pm 11.2 7.7 8.9 86 1.2 SSW 17 26 9 14 1013.1 1013.1 1.0
29/06:30pm 11.8 8.4 9.2 84 1.3 SSW 17 26 9 14 1012.7 1012.7 1.0
29/06:00pm 11.8 7.3 8.6 81 1.6 SSW 22 33 12 18 1012.2 1012.2 1.0
29/05:30pm 11.9 7.9 8.9 82 1.5 SSW 20 30 11 16 1011.7 1011.7 1.0
29/05:00pm 12.1 8.6 10.2 88 1.0 SSW 19 30 10 16 1011.0 1011.1 1.0
29/04:30pm 12.0 7.5 10.2 89 0.9 SSW 24 37 13 20 1010.7 1010.7 1.0
29/04:00pm 12.8 8.6 11.2 90 0.9 SSW 24 32 13 17 1010.1 1010.1 1.0
29/03:30pm 14.7 11.4 10.9 78 2.0 SSW 19 28 10 15 1009.4 1009.4 0.4
29/03:00pm 12.8 9.1 11.5 92 0.7 SSW 22 32 12 17 1009.3 1009.3 0.4
29/02:30pm 13.8 7.8 10.0 78 2.0 SSW 32 44 17 24 1008.9 1008.9 0.2
29/02:00pm 14.4 8.5 10.6 78 2.0 SW 32 44 17 24 1008.8 1008.8 0.2
29/01:30pm 12.9 7.7 11.5 91 0.8 SSW 30 43 16 23 1008.8 1008.8 0.2
29/01:00pm 14.6 8.3 11.2 80 1.8 SW 35 52 19 28 1008.5 1008.5 0.2
29/12:35pm 14.1 8.9 10.3 78 2.0 WSW 28 46 15 25 1008.4 1008.4 0.0
29/12:30pm 14.5 9.9 11.1 80 1.8 SW 26 37 14 20 1008.4 1008.4 0.0
29/12:04pm 13.2 6.5 11.1 87 1.1 SW 37 56 20 30 1008.5 1008.5 0.0
29/12:00pm 13.3 6.7 11.2 87 1.1 SW 37 48 20 26 1008.6 1008.6 0.0

Other Formats:

Comma delimited format used in spreadsheet applications
http://www.bom.gov.au/fwo/IDW60801/IDW60801.95642.axf

JavaScript Object Notation format (JSON) in row-major order
http://www.bom.gov.au/fwo/IDW60801/IDW60801.95642.json